createdAt,value
2022-11-05T00:01:54.564Z,4.70
2022-11-05T00:04:39.501Z,4.69
2022-11-05T00:07:34.083Z,4.99
2022-11-05T00:10:05.668Z,5.13
2022-11-05T00:12:50.911Z,4.94
2022-11-05T00:15:35.820Z,5.40
2022-11-05T00:18:02.336Z,5.67
2022-11-05T00:20:28.843Z,5.64
2022-11-05T00:23:20.492Z,5.85
2022-11-05T00:26:13.174Z,5.76
2022-11-05T00:28:41.807Z,5.97
2022-11-05T00:31:09.917Z,5.86
2022-11-05T00:33:36.837Z,5.87
2022-11-05T00:36:04.381Z,5.94
2022-11-05T00:38:30.990Z,5.85
2022-11-05T00:40:57.548Z,5.84
2022-11-05T00:43:42.650Z,5.90
2022-11-05T00:46:09.562Z,5.66
2022-11-05T00:48:54.488Z,5.83
2022-11-05T00:51:21.170Z,5.73
2022-11-05T00:53:47.700Z,5.78
2022-11-05T00:56:14.239Z,6.13
2022-11-05T00:58:40.775Z,6.32
2022-11-05T01:01:07.535Z,6.17
2022-11-05T01:03:35.786Z,6.74
2022-11-05T01:06:10.732Z,6.74
2022-11-05T01:08:37.761Z,6.79
2022-11-05T01:11:09.265Z,6.77
2022-11-05T01:13:36.454Z,6.19
2022-11-05T01:16:08.162Z,6.20
2022-11-05T01:18:37.310Z,6.05
2022-11-05T01:21:10.634Z,6.47
2022-11-05T01:23:37.245Z,6.20
2022-11-05T01:26:03.838Z,6.22
2022-11-05T01:28:30.651Z,6.25
2022-11-05T01:30:57.284Z,6.16
2022-11-05T01:33:24.474Z,6.22
2022-11-05T01:35:51.842Z,6.30
2022-11-05T01:38:18.610Z,6.28
2022-11-05T01:40:45.177Z,6.10
2022-11-05T01:43:16.322Z,6.01
2022-11-05T01:45:44.204Z,5.68
2022-11-05T01:48:17.362Z,6.17
2022-11-05T01:50:47.396Z,5.98
2022-11-05T01:53:16.787Z,5.94
2022-11-05T01:55:47.183Z,5.72
2022-11-05T01:58:19.243Z,5.50
2022-11-05T02:00:45.922Z,5.54
2022-11-05T02:03:15.537Z,5.49
2022-11-05T02:05:43.046Z,5.31
2022-11-05T02:08:16.239Z,5.12
2022-11-05T02:10:44.979Z,5.01
2022-11-05T02:13:11.639Z,4.87
2022-11-05T02:15:44.583Z,4.66
2022-11-05T02:18:19.416Z,4.72
2022-11-05T02:20:52.737Z,4.25
2022-11-05T02:23:38.052Z,3.99
2022-11-05T02:26:20.102Z,4.23
2022-11-05T02:28:49.507Z,4.13
2022-11-05T02:31:26.022Z,4.07
2022-11-05T02:34:01.740Z,3.98
2022-11-05T02:36:28.197Z,3.79
2022-11-05T02:39:13.505Z,3.92
2022-11-05T02:41:49.435Z,3.82
2022-11-05T02:44:26.718Z,3.67
2022-11-05T02:47:07.377Z,3.68
2022-11-05T02:49:40.069Z,4.18
2022-11-05T02:52:14.503Z,4.21
2022-11-05T02:54:41.036Z,4.73
2022-11-05T02:57:07.675Z,4.37
2022-11-05T02:59:34.207Z,3.88
2022-11-05T03:02:03.813Z,3.63
2022-11-05T03:04:32.191Z,3.96
2022-11-05T03:07:01.814Z,3.83
2022-11-05T03:09:43.728Z,3.46
2022-11-05T03:12:20.097Z,3.52
2022-11-05T03:15:05.110Z,3.64
2022-11-05T03:17:49.972Z,3.44
2022-11-05T03:20:24.664Z,3.59
2022-11-05T03:23:00.476Z,3.13
2022-11-05T03:25:29.543Z,3.12
2022-11-05T03:27:59.970Z,3.15
2022-11-05T03:30:26.734Z,3.21
2022-11-05T03:33:00.025Z,2.87
2022-11-05T03:35:29.710Z,3.03
2022-11-05T03:38:01.049Z,3.06
2022-11-05T03:40:33.502Z,2.88
2022-11-05T03:43:02.528Z,2.70
2022-11-05T03:45:34.096Z,2.63
2022-11-05T03:48:02.890Z,2.57
2022-11-05T03:50:48.091Z,2.60
2022-11-05T03:53:22.938Z,2.41
2022-11-05T03:55:59.406Z,2.42
2022-11-05T03:58:26.499Z,2.48
2022-11-05T04:00:53.189Z,2.23
2022-11-05T04:03:20.022Z,2.23
2022-11-05T04:06:10.069Z,2.26
2022-11-05T04:08:55.242Z,2.19
2022-11-05T04:11:40.190Z,2.02
2022-11-05T04:14:06.679Z,1.97
2022-11-05T04:16:52.030Z,1.99
2022-11-05T04:19:38.499Z,1.96
2022-11-05T04:22:23.515Z,2.25
2022-11-05T04:24:50.094Z,2.07
2022-11-05T04:27:16.633Z,2.12
2022-11-05T04:30:01.834Z,2.13
2022-11-05T04:32:28.596Z,2.04
2022-11-05T04:34:55.280Z,2.07
2022-11-05T04:37:21.949Z,2.36
2022-11-05T04:39:48.455Z,2.53
2022-11-05T04:42:14.987Z,2.41
2022-11-05T04:44:41.456Z,2.35
2022-11-05T04:47:07.997Z,2.25
2022-11-05T04:49:34.592Z,2.32
2022-11-05T04:52:01.127Z,2.38
2022-11-05T04:54:27.661Z,2.31
2022-11-05T04:56:54.195Z,2.47
2022-11-05T04:59:20.747Z,2.36
2022-11-05T05:01:51.486Z,2.59
2022-11-05T05:04:18.103Z,2.42
2022-11-05T05:06:44.942Z,2.48
2022-11-05T05:09:11.493Z,2.41
2022-11-05T05:11:38.219Z,2.48
2022-11-05T05:14:04.701Z,2.60
2022-11-05T05:16:31.287Z,2.54
2022-11-05T05:18:57.956Z,2.41
2022-11-05T05:21:39.846Z,2.59
2022-11-05T05:24:08.866Z,2.28
2022-11-05T05:26:36.506Z,2.48
2022-11-05T05:29:03.727Z,2.33
2022-11-05T05:31:30.374Z,2.17
2022-11-05T05:33:56.925Z,2.42
2022-11-05T05:36:23.842Z,2.29
2022-11-05T05:38:51.025Z,2.55
2022-11-05T05:41:18.047Z,2.33
2022-11-05T05:43:44.602Z,2.58
2022-11-05T05:46:13.011Z,2.34
2022-11-05T05:48:40.434Z,2.16
2022-11-05T05:51:11.452Z,2.21
2022-11-05T05:53:38.764Z,2.16
2022-11-05T05:56:06.057Z,2.26
2022-11-05T05:58:34.575Z,1.97
2022-11-05T06:01:02.665Z,2.05
2022-11-05T06:03:29.287Z,2.07
2022-11-05T06:06:03.613Z,2.27
2022-11-05T06:08:30.814Z,2.15
2022-11-05T06:10:57.505Z,2.45
2022-11-05T06:13:24.214Z,2.33
2022-11-05T06:15:50.746Z,2.47
2022-11-05T06:18:17.597Z,2.35
2022-11-05T06:20:44.296Z,2.49
2022-11-05T06:23:11.057Z,2.89
2022-11-05T06:25:41.207Z,3.16
2022-11-05T06:28:08.152Z,3.05
2022-11-05T06:30:34.742Z,3.09
2022-11-05T06:33:05.302Z,3.26
2022-11-05T06:35:32.049Z,3.40
2022-11-05T06:37:59.161Z,3.62
2022-11-05T06:40:25.727Z,3.46
2022-11-05T06:42:52.784Z,3.41
2022-11-05T06:45:19.690Z,3.22
2022-11-05T06:47:46.216Z,3.52
2022-11-05T06:50:12.761Z,3.27
2022-11-05T06:52:41.185Z,3.54
2022-11-05T06:55:08.393Z,3.47
2022-11-05T06:57:37.071Z,3.45
2022-11-05T07:00:07.776Z,3.38
2022-11-05T07:02:34.790Z,3.40
2022-11-05T07:05:01.278Z,3.36
2022-11-05T07:07:27.820Z,3.17
2022-11-05T07:09:54.304Z,3.34
2022-11-05T07:12:20.817Z,3.43
2022-11-05T07:14:47.265Z,3.21
2022-11-05T07:17:13.860Z,3.14
2022-11-05T07:19:40.389Z,3.29
2022-11-05T07:22:06.936Z,3.35
2022-11-05T07:24:33.456Z,3.29
2022-11-05T07:27:00.038Z,3.44
2022-11-05T07:29:26.854Z,3.23
2022-11-05T07:31:53.409Z,3.52
2022-11-05T07:34:20.078Z,3.22
2022-11-05T07:36:46.664Z,3.45
2022-11-05T07:39:13.179Z,3.48
2022-11-05T07:41:39.885Z,3.27
2022-11-05T07:44:06.555Z,3.45
2022-11-05T07:46:33.120Z,3.33
2022-11-05T07:48:59.656Z,3.62
2022-11-05T07:51:26.361Z,3.56
2022-11-05T07:53:52.858Z,3.64
2022-11-05T07:56:19.430Z,3.57
2022-11-05T07:58:46.088Z,3.85
2022-11-05T08:01:12.591Z,3.74
2022-11-05T08:03:39.297Z,3.84
2022-11-05T08:06:05.989Z,3.93
2022-11-05T08:08:32.833Z,3.87
2022-11-05T08:11:07.447Z,3.90
2022-11-05T08:13:34.492Z,4.19
2022-11-05T08:16:02.078Z,4.15
2022-11-05T08:18:32.494Z,4.17
2022-11-05T08:21:00.486Z,4.70
2022-11-05T08:23:28.530Z,4.29
2022-11-05T08:25:55.680Z,4.72
2022-11-05T08:28:23.160Z,4.46
2022-11-05T08:30:50.592Z,4.81
2022-11-05T08:33:17.766Z,4.83
2022-11-05T08:35:44.901Z,5.03
2022-11-05T08:38:15.938Z,4.74
2022-11-05T08:40:43.596Z,4.93
2022-11-05T08:43:11.824Z,5.30
2022-11-05T08:45:38.949Z,5.65
2022-11-05T08:48:10.251Z,5.48
2022-11-05T08:50:37.849Z,5.46
2022-11-05T08:53:05.373Z,4.68
2022-11-05T08:55:32.006Z,4.89
2022-11-05T08:57:59.984Z,4.68
2022-11-05T09:00:27.990Z,4.51
2022-11-05T09:02:54.583Z,4.33
2022-11-05T09:05:21.155Z,4.29
2022-11-05T09:07:47.749Z,4.39
2022-11-05T09:10:14.393Z,4.09
2022-11-05T09:12:41.027Z,3.95
2022-11-05T09:15:07.867Z,4.14
2022-11-05T09:17:34.444Z,4.13
2022-11-05T09:20:01.599Z,4.46
2022-11-05T09:22:28.102Z,4.34
2022-11-05T09:24:54.616Z,4.40
2022-11-05T09:27:21.356Z,4.42
2022-11-05T09:29:47.908Z,4.35
2022-11-05T09:32:18.521Z,4.30
2022-11-05T09:34:45.568Z,4.16
2022-11-05T09:37:12.060Z,4.51
2022-11-05T09:39:38.623Z,4.77
2022-11-05T09:42:07.831Z,4.87
2022-11-05T09:44:47.917Z,5.18
2022-11-05T09:47:18.869Z,4.87
2022-11-05T09:49:50.261Z,5.24
2022-11-05T09:52:22.061Z,4.88
2022-11-05T09:54:50.438Z,4.50
2022-11-05T09:57:21.256Z,4.94
2022-11-05T09:59:56.171Z,4.66
2022-11-05T10:02:28.376Z,5.02
2022-11-05T10:05:06.438Z,4.87
2022-11-05T10:07:42.840Z,4.59
2022-11-05T10:10:20.568Z,4.76
2022-11-05T10:12:51.787Z,4.85
2022-11-05T10:15:18.402Z,4.50
2022-11-05T10:17:49.441Z,4.37
2022-11-05T10:20:19.080Z,5.02
2022-11-05T10:22:49.500Z,4.84
2022-11-05T10:25:20.728Z,4.73
2022-11-05T10:27:53.250Z,4.60
2022-11-05T10:30:20.427Z,4.59
2022-11-05T10:32:48.542Z,4.62
2022-11-05T10:35:18.599Z,4.25
2022-11-05T10:37:46.711Z,4.47
2022-11-05T10:40:21.451Z,4.33
2022-11-05T10:43:03.780Z,4.42
2022-11-05T10:45:49.325Z,4.40
2022-11-05T10:48:30.902Z,4.09
2022-11-05T10:50:57.439Z,4.19
2022-11-05T10:53:28.882Z,4.01
2022-11-05T10:55:58.504Z,3.81
2022-11-05T10:58:30.171Z,3.93
2022-11-05T11:00:56.809Z,3.78
2022-11-05T11:03:35.471Z,3.83
2022-11-05T11:06:04.636Z,3.82
2022-11-05T11:08:35.651Z,3.31
2022-11-05T11:11:10.064Z,3.45
2022-11-05T11:13:59.145Z,3.52
2022-11-05T11:16:27.396Z,3.48
2022-11-05T11:19:00.601Z,3.40
2022-11-05T11:21:28.555Z,3.21
2022-11-05T11:23:58.329Z,3.10
2022-11-05T11:26:28.016Z,3.28
2022-11-05T11:29:07.381Z,3.52
2022-11-05T11:31:38.112Z,3.37
2022-11-05T11:34:07.035Z,3.14
2022-11-05T11:36:43.003Z,3.55
2022-11-05T11:39:15.983Z,3.21
2022-11-05T11:41:45.638Z,3.47
2022-11-05T11:44:17.771Z,3.46
2022-11-05T11:46:49.233Z,3.30
2022-11-05T11:49:33.173Z,3.26
2022-11-05T11:52:04.285Z,3.48
2022-11-05T11:54:32.885Z,3.35
2022-11-05T11:56:59.770Z,3.28
2022-11-05T11:59:53.806Z,3.56
2022-11-05T12:02:26.633Z,3.14
2022-11-05T12:05:02.073Z,3.25
2022-11-05T12:07:58.120Z,3.22
2022-11-05T12:10:28.393Z,2.94
2022-11-05T12:12:57.968Z,2.90
2022-11-05T12:15:44.972Z,2.85
2022-11-05T12:18:20.669Z,3.15
2022-11-05T12:21:07.568Z,3.03
2022-11-05T12:23:34.220Z,2.85
2022-11-05T12:26:06.796Z,2.61
2022-11-05T12:28:36.426Z,2.40
2022-11-05T12:31:29.445Z,2.54
2022-11-05T12:33:58.851Z,2.57
2022-11-05T12:36:25.380Z,2.85
2022-11-05T12:39:04.572Z,2.84
2022-11-05T12:41:35.424Z,2.60
2022-11-05T12:44:19.778Z,2.53
2022-11-05T12:46:46.309Z,2.50
2022-11-05T12:49:19.292Z,2.70
2022-11-05T12:51:48.600Z,2.81
2022-11-05T12:54:23.335Z,2.44
2022-11-05T12:56:55.127Z,2.66
2022-11-05T12:59:36.509Z,2.73
2022-11-05T13:02:11.992Z,2.62
2022-11-05T13:04:50.825Z,2.55
2022-11-05T13:07:23.679Z,2.50
2022-11-05T13:10:10.641Z,2.56
2022-11-05T13:12:40.665Z,2.68
2022-11-05T13:15:28.126Z,2.75
2022-11-05T13:18:05.916Z,2.81
2022-11-05T13:20:36.430Z,2.71
2022-11-05T13:23:21.522Z,2.97
2022-11-05T13:25:51.699Z,2.76
2022-11-05T13:28:26.540Z,3.03
2022-11-05T13:30:56.124Z,2.86
2022-11-05T13:33:26.133Z,2.62
2022-11-05T13:36:23.492Z,3.08
2022-11-05T13:39:02.626Z,2.78
2022-11-05T13:41:30.207Z,2.80
2022-11-05T13:44:17.670Z,3.03
2022-11-05T13:46:58.070Z,3.33
2022-11-05T13:49:33.778Z,3.30
2022-11-05T13:52:20.338Z,3.72
2022-11-05T13:54:59.415Z,4.50
2022-11-05T13:57:52.317Z,4.13
2022-11-05T14:00:27.416Z,4.20
2022-11-05T14:02:53.892Z,4.81
2022-11-05T14:05:40.687Z,4.91
2022-11-05T14:08:10.607Z,4.63
2022-11-05T14:10:40.060Z,4.68
2022-11-05T14:13:25.481Z,4.84
2022-11-05T14:16:17.719Z,4.83
2022-11-05T14:18:52.352Z,5.22
2022-11-05T14:21:27.854Z,4.98
2022-11-05T14:23:56.478Z,5.27
2022-11-05T14:26:27.823Z,5.31
2022-11-05T14:28:57.010Z,5.25
2022-11-05T14:31:47.400Z,5.32
2022-11-05T14:34:14.815Z,5.67
2022-11-05T14:36:43.682Z,5.07
2022-11-05T14:39:19.645Z,5.20
2022-11-05T14:41:55.807Z,5.15
2022-11-05T14:44:24.040Z,5.24
2022-11-05T14:46:52.853Z,5.53
2022-11-05T14:49:39.741Z,5.39
2022-11-05T14:52:09.895Z,5.18
2022-11-05T14:54:36.393Z,5.05
2022-11-05T14:57:03.713Z,5.45
2022-11-05T14:59:33.379Z,5.60
2022-11-05T15:02:18.736Z,5.58
2022-11-05T15:04:45.834Z,4.84
2022-11-05T15:07:25.110Z,4.59
2022-11-05T15:10:10.229Z,4.91
2022-11-05T15:12:41.458Z,5.16
2022-11-05T15:15:27.686Z,5.24
2022-11-05T15:17:58.056Z,4.65
2022-11-05T15:20:35.881Z,5.18
2022-11-05T15:23:09.495Z,6.29
2022-11-05T15:25:45.772Z,5.36
2022-11-05T15:28:14.298Z,5.27
2022-11-05T15:30:55.099Z,4.90
2022-11-05T15:33:22.106Z,5.02
2022-11-05T15:35:48.967Z,4.97
2022-11-05T15:38:26.561Z,5.19
2022-11-05T15:41:12.793Z,5.05
2022-11-05T15:43:48.127Z,5.58
2022-11-05T15:46:15.065Z,5.22
2022-11-05T15:48:45.244Z,5.50
2022-11-05T15:51:12.012Z,5.24
2022-11-05T15:54:15.597Z,5.52
2022-11-05T15:56:40.502Z,5.17
2022-11-05T15:59:16.461Z,5.16
2022-11-05T16:01:48.451Z,5.65
2022-11-05T16:04:18.112Z,5.74
2022-11-05T16:06:47.714Z,6.04
2022-11-05T16:09:26.529Z,5.95
2022-11-05T16:12:19.758Z,5.78
2022-11-05T16:15:00.329Z,6.32
2022-11-05T16:17:50.576Z,5.46
2022-11-05T16:20:20.592Z,6.24
2022-11-05T16:22:48.331Z,6.41
2022-11-05T16:25:41.283Z,6.31
2022-11-05T16:28:20.036Z,6.17
2022-11-05T16:30:52.525Z,5.99
2022-11-05T16:33:19.328Z,6.22
2022-11-05T16:35:50.121Z,7.73
2022-11-05T16:38:17.960Z,6.73
2022-11-05T16:40:44.516Z,6.89
2022-11-05T16:43:21.749Z,6.98
2022-11-05T16:45:49.708Z,6.97
2022-11-05T16:48:16.784Z,7.74
2022-11-05T16:50:43.404Z,7.09
2022-11-05T16:53:10.036Z,7.08
2022-11-05T16:55:38.235Z,7.01
2022-11-05T16:58:04.844Z,7.39
2022-11-05T17:00:31.482Z,8.35
2022-11-05T17:02:58.201Z,8.68
2022-11-05T17:05:29.734Z,11.74
2022-11-05T17:07:56.935Z,10.21
2022-11-05T17:10:25.029Z,9.77
2022-11-05T17:12:51.628Z,9.63
2022-11-05T17:15:19.930Z,8.94
2022-11-05T17:17:47.108Z,9.14
2022-11-05T17:20:24.765Z,9.60
2022-11-05T17:22:51.307Z,9.62
2022-11-05T17:25:17.881Z,10.64
2022-11-05T17:27:44.413Z,10.85
2022-11-05T17:30:11.251Z,10.67
2022-11-05T17:32:37.952Z,10.87
2022-11-05T17:35:04.932Z,10.62
2022-11-05T17:37:31.520Z,11.25
2022-11-05T17:39:58.050Z,11.60
2022-11-05T17:42:24.747Z,15.69
2022-11-05T17:44:51.461Z,17.19
2022-11-05T17:47:18.073Z,10.91
2022-11-05T17:49:44.760Z,10.24
2022-11-05T17:52:11.342Z,11.62
2022-11-05T17:54:37.924Z,11.99
2022-11-05T17:57:05.350Z,15.02
2022-11-05T17:59:31.975Z,19.72
2022-11-05T18:01:58.606Z,12.28
2022-11-05T18:04:25.241Z,11.68
2022-11-05T18:06:51.884Z,12.12
2022-11-05T18:09:18.551Z,10.60
2022-11-05T18:11:45.220Z,11.12
2022-11-05T18:14:11.814Z,10.27
2022-11-05T18:16:38.333Z,10.75
2022-11-05T18:19:05.004Z,11.29
2022-11-05T18:21:31.605Z,10.76
2022-11-05T18:23:58.449Z,10.24
2022-11-05T18:26:24.979Z,10.26
2022-11-05T18:28:51.545Z,9.74
2022-11-05T18:31:20.625Z,9.92
2022-11-05T18:33:48.693Z,10.40
2022-11-05T18:36:29.778Z,10.24
2022-11-05T18:39:00.714Z,10.30
2022-11-05T18:41:27.527Z,10.09
2022-11-05T18:43:57.892Z,10.31
2022-11-05T18:46:56.073Z,9.99
2022-11-05T18:49:13.880Z,9.38
2022-11-05T18:51:40.983Z,9.96
2022-11-05T18:54:08.577Z,9.59
2022-11-05T18:56:35.757Z,9.40
2022-11-05T18:59:34.736Z,9.18
2022-11-05T19:01:50.248Z,9.03
2022-11-05T19:04:16.928Z,8.93
2022-11-05T19:06:43.465Z,9.20
2022-11-05T19:09:11.981Z,9.74
2022-11-05T19:11:39.821Z,9.19
2022-11-05T19:14:07.285Z,8.95
2022-11-05T19:16:34.232Z,8.45
2022-11-05T19:19:02.206Z,8.45
2022-11-05T19:21:28.965Z,11.33
2022-11-05T19:24:01.367Z,8.47
2022-11-05T19:26:29.152Z,8.05
2022-11-05T19:28:57.868Z,10.18
2022-11-05T19:31:24.791Z,8.38
2022-11-05T19:33:51.889Z,9.58
2022-11-05T19:36:20.625Z,8.30
2022-11-05T19:38:54.259Z,8.42
2022-11-05T19:41:22.312Z,8.33
2022-11-05T19:43:49.042Z,8.27
2022-11-05T19:46:17.262Z,8.37
2022-11-05T19:48:43.878Z,8.23
2022-11-05T19:51:13.336Z,7.79
2022-11-05T19:53:40.394Z,7.63
2022-11-05T19:56:15.972Z,8.17
2022-11-05T19:58:43.404Z,8.36
2022-11-05T20:01:11.164Z,8.03
2022-11-05T20:03:37.944Z,8.13
2022-11-05T20:06:09.581Z,7.17
2022-11-05T20:08:47.766Z,7.16
2022-11-05T20:11:23.172Z,7.38
2022-11-05T20:13:49.688Z,7.31
2022-11-05T20:16:23.598Z,7.63
2022-11-05T20:18:50.539Z,7.01
2022-11-05T20:21:17.177Z,7.50
2022-11-05T20:23:44.266Z,7.00
2022-11-05T20:26:11.013Z,6.68
2022-11-05T20:28:38.613Z,6.57
2022-11-05T20:31:09.653Z,6.59
2022-11-05T20:33:36.783Z,6.65
2022-11-05T20:36:05.165Z,6.40
2022-11-05T20:38:32.399Z,6.38
2022-11-05T20:40:58.948Z,6.51
2022-11-05T20:43:30.131Z,6.29
2022-11-05T20:45:58.082Z,6.04
2022-11-05T20:48:24.729Z,5.72
2022-11-05T20:50:51.470Z,5.68
2022-11-05T20:53:17.993Z,5.87
2022-11-05T20:55:46.348Z,5.93
2022-11-05T20:58:14.775Z,6.34
2022-11-05T21:00:47.687Z,6.61
2022-11-05T21:03:14.221Z,7.24
2022-11-05T21:05:44.984Z,6.02
2022-11-05T21:08:11.926Z,6.06
2022-11-05T21:10:38.645Z,5.69
2022-11-05T21:13:05.110Z,5.81
2022-11-05T21:15:31.706Z,6.01
2022-11-05T21:17:58.244Z,5.75
2022-11-05T21:20:24.728Z,5.61
2022-11-05T21:22:51.526Z,5.55
2022-11-05T21:25:18.200Z,5.54
2022-11-05T21:27:44.839Z,5.52
2022-11-05T21:30:12.160Z,5.53
2022-11-05T21:32:38.822Z,5.25
2022-11-05T21:35:05.477Z,5.32
2022-11-05T21:37:32.571Z,5.59
2022-11-05T21:39:59.254Z,5.78
2022-11-05T21:42:26.184Z,5.76
2022-11-05T21:44:57.672Z,6.02
2022-11-05T21:47:27.967Z,6.41
2022-11-05T21:49:54.605Z,6.19
2022-11-05T21:52:39.645Z,6.40
2022-11-05T21:55:25.524Z,6.57
2022-11-05T21:58:10.797Z,6.58
2022-11-05T22:00:38.164Z,6.77
2022-11-05T22:03:04.816Z,6.74
2022-11-05T22:05:31.543Z,7.39
2022-11-05T22:07:58.162Z,6.50
2022-11-05T22:10:24.950Z,6.62
2022-11-05T22:12:51.546Z,6.74
2022-11-05T22:15:18.181Z,6.50
2022-11-05T22:17:47.128Z,6.48
2022-11-05T22:20:14.034Z,6.20
2022-11-05T22:22:40.762Z,6.36
2022-11-05T22:25:07.412Z,5.99
2022-11-05T22:27:34.142Z,6.54
2022-11-05T22:30:00.776Z,6.17
2022-11-05T22:32:27.342Z,5.87
2022-11-05T22:34:53.848Z,5.82
2022-11-05T22:37:20.421Z,6.17
2022-11-05T22:39:46.934Z,5.82
2022-11-05T22:42:13.572Z,6.55
2022-11-05T22:44:40.327Z,6.13
2022-11-05T22:47:07.223Z,5.74
2022-11-05T22:49:33.977Z,6.60
2022-11-05T22:52:00.544Z,7.64
2022-11-05T22:54:27.143Z,6.70
2022-11-05T22:56:53.875Z,6.91
2022-11-05T22:59:20.567Z,6.08
2022-11-05T23:01:47.892Z,6.37
2022-11-05T23:04:15.151Z,6.00
2022-11-05T23:07:00.805Z,6.19
2022-11-05T23:09:51.401Z,6.27
2022-11-05T23:12:32.408Z,6.10
2022-11-05T23:15:00.647Z,6.37
2022-11-05T23:17:46.450Z,6.01
2022-11-05T23:20:33.491Z,6.15
2022-11-05T23:23:18.571Z,6.20
2022-11-05T23:25:45.201Z,6.26
2022-11-05T23:28:12.364Z,6.33
2022-11-05T23:31:00.450Z,6.42
2022-11-05T23:33:27.927Z,6.32
2022-11-05T23:36:33.278Z,6.64
2022-11-05T23:38:59.707Z,6.20
2022-11-05T23:41:44.538Z,6.50
2022-11-05T23:44:29.621Z,6.54
2022-11-05T23:47:14.600Z,6.63
2022-11-05T23:49:41.114Z,6.47
2022-11-05T23:52:07.677Z,6.33
2022-11-05T23:54:34.413Z,6.36
2022-11-05T23:57:00.921Z,6.14
2022-11-05T23:59:27.401Z,6.47
